Time;durP1;ratioP1;P1;durP2;ratioP2;P2;SDS_P1;SDS_P2;PMS_P1;PMS_P2;Temp;Humidity;BMP_temperature;BMP_pressure;BME280_temperature;BME280_humidity;BME280_pressure;Samples;Min_cycle;Max_cycle;Signal;HPM_P1;HPM_P2
2023/07/13 00:01:55;;;;;;;;;;;;;;;26.10;58.03;99323.94;4500723;31;34558;-74
2023/07/13 00:04:25;;;;;;;;;;;;;;;26.00;58.16;99316.84;4495247;31;33165;-75
2023/07/13 00:06:54;;;;;;;;;;;;;;;26.27;57.53;99324.34;4495702;31;34334;-74
2023/07/13 00:09:29;;;;;;;;;;;;;;;26.10;56.97;99317.78;4494866;31;33542;-76
2023/07/13 00:12:00;;;;;;;;;;;;;;;26.08;55.90;99311.75;4498524;31;34150;-75
2023/07/13 00:14:32;;;;;;;;;;;;;;;26.20;53.82;99297.41;4500641;31;33160;-77
2023/07/13 00:17:01;;;;;;;;;;;;;;;26.12;53.37;99278.59;4496774;31;35439;-74
2023/07/13 00:19:31;;;;;;;;;;;;;;;26.15;52.90;99275.69;4496674;31;33878;-73
2023/07/13 00:22:00;;;;;;;;;;;;;;;26.53;50.73;99266.25;4497117;31;34850;-74
2023/07/13 00:24:41;;;;;;;;;;;;;;;26.45;50.23;99256.28;4500355;31;33377;-75
2023/07/13 00:27:17;;;;;;;;;;;;;;;26.81;49.23;99243.44;4497003;31;34388;-76
2023/07/13 00:29:47;;;;;;;;;;;;;;;26.75;49.39;99238.66;4497591;31;34730;-73
2023/07/13 00:32:16;;;;;;;;;;;;;;;26.90;48.02;99231.97;4495469;31;34821;-75
2023/07/13 00:34:45;;;;;;;;;;;;;;;27.07;48.56;99214.50;4495813;31;34044;-74
2023/07/13 00:37:14;;;;;;;;;;;;;;;27.11;47.22;99220.38;4500616;31;34618;-74
2023/07/13 00:39:44;;;;;;;;;;;;;;;27.10;47.72;99221.38;4497821;31;34236;-75
2023/07/13 00:42:15;;;;;;;;;;;;;;;27.28;47.50;99226.91;4495992;31;34256;-74
2023/07/13 00:45:07;;;;;;;;;;;;;;;27.28;47.46;99211.78;4495078;31;33049;-74
2023/07/13 00:47:36;;;;;;;;;;;;;;;27.39;47.50;99216.97;4503171;31;33603;-76
2023/07/13 00:50:13;;;;;;;;;;;;;;;27.22;45.56;99214.97;4499661;31;33979;-75
2023/07/13 00:52:43;;;;;;;;;;;;;;;27.45;44.73;99202.25;4496241;31;33788;-73
2023/07/13 00:55:12;;;;;;;;;;;;;;;27.31;45.31;99194.69;4507658;31;33706;-75
2023/07/13 00:57:48;;;;;;;;;;;;;;;27.55;42.32;99202.25;4505808;31;34107;-74
2023/07/13 01:00:17;;;;;;;;;;;;;;;27.47;44.53;99200.28;4495523;31;34444;-76
2023/07/13 01:02:49;;;;;;;;;;;;;;;27.40;43.98;99199.16;4500184;31;34645;-74
2023/07/13 01:05:19;;;;;;;;;;;;;;;27.49;45.15;99200.97;4495684;31;32772;-76
2023/07/13 01:07:49;;;;;;;;;;;;;;;27.34;46.24;99195.22;4500304;31;34502;-75
2023/07/13 01:10:18;;;;;;;;;;;;;;;27.17;47.03;99187.91;4503772;31;34680;-74
2023/07/13 01:12:52;;;;;;;;;;;;;;;27.22;46.56;99189.19;4500016;31;36013;-74
2023/07/13 01:15:35;;;;;;;;;;;;;;;27.23;46.45;99193.56;4494197;31;33410;-74
2023/07/13 01:18:05;;;;;;;;;;;;;;;27.10;46.47;99190.25;4499885;31;33488;-74
2023/07/13 01:20:38;;;;;;;;;;;;;;;27.44;45.65;99195.22;4500799;31;33981;-74
2023/07/13 01:23:08;;;;;;;;;;;;;;;27.26;46.48;99199.59;4495325;31;34357;-76
2023/07/13 01:25:40;;;;;;;;;;;;;;;26.69;48.98;99192.13;4500148;31;33613;-74
2023/07/13 01:28:09;;;;;;;;;;;;;;;27.07;48.04;99190.56;4497335;31;33576;-74
2023/07/13 01:30:46;;;;;;;;;;;;;;;27.00;48.46;99187.59;4495011;31;33883;-75
2023/07/13 01:33:21;;;;;;;;;;;;;;;27.14;48.57;99186.34;4506799;31;34214;-74
2023/07/13 01:35:51;;;;;;;;;;;;;;;26.89;49.20;99179.72;4511950;31;33192;-75
2023/07/13 01:38:24;;;;;;;;;;;;;;;27.03;49.41;99175.81;4499984;31;34721;-75
2023/07/13 01:40:53;;;;;;;;;;;;;;;26.69;50.30;99170.84;4495408;31;33818;-74
2023/07/13 01:43:24;;;;;;;;;;;;;;;26.95;49.30;99171.19;4494951;31;34031;-74
2023/07/13 01:45:53;;;;;;;;;;;;;;;26.67;50.82;99164.81;4494769;31;32856;-75
2023/07/13 01:48:34;;;;;;;;;;;;;;;26.31;52.57;99153.75;4495042;31;33969;-74
2023/07/13 01:51:03;;;;;;;;;;;;;;;26.52;52.31;99153.69;4499902;31;33976;-74
2023/07/13 01:53:37;;;;;;;;;;;;;;;26.51;52.73;99152.00;4494818;31;34901;-74
2023/07/13 01:56:09;;;;;;;;;;;;;;;26.28;54.03;99151.34;4496120;31;32236;-76
2023/07/13 01:58:38;;;;;;;;;;;;;;;26.37;53.78;99155.87;4498370;31;34325;-76
2023/07/13 02:01:10;;;;;;;;;;;;;;;26.59;53.70;99152.19;4507207;31;34262;-74
2023/07/13 02:03:39;;;;;;;;;;;;;;;26.75;52.94;99149.03;4493929;31;34692;-74
2023/07/13 02:06:11;;;;;;;;;;;;;;;26.91;52.84;99145.81;4501978;31;32887;-73
2023/07/13 02:08:42;;;;;;;;;;;;;;;26.89;52.94;99145.09;4501964;31;33477;-74
2023/07/13 02:11:15;;;;;;;;;;;;;;;26.72;52.98;99154.59;4495063;31;33817;-74
2023/07/13 02:13:44;;;;;;;;;;;;;;;26.75;53.13;99167.66;4497997;31;34381;-74
2023/07/13 02:16:13;;;;;;;;;;;;;;;26.65;53.54;99163.28;4494906;31;32741;-75
2023/07/13 02:18:43;;;;;;;;;;;;;;;26.46;53.37;99159.56;4494447;31;34129;-75
2023/07/13 02:21:16;;;;;;;;;;;;;;;26.45;53.25;99157.03;4496470;31;33859;-75
2023/07/13 02:23:47;;;;;;;;;;;;;;;26.36;52.96;99164.84;4505299;31;34386;-74
2023/07/13 02:26:17;;;;;;;;;;;;;;;26.15;53.37;99156.06;4499727;31;33262;-75
2023/07/13 02:28:46;;;;;;;;;;;;;;;26.29;53.50;99152.19;4500750;31;34683;-74
2023/07/13 02:31:16;;;;;;;;;;;;;;;26.12;53.70;99156.31;4494821;31;34370;-74
2023/07/13 02:33:46;;;;;;;;;;;;;;;26.12;53.97;99167.81;4497821;31;34287;-74
2023/07/13 02:36:20;;;;;;;;;;;;;;;26.28;53.94;99172.63;4499468;31;34014;-75
2023/07/13 02:38:51;;;;;;;;;;;;;;;26.33;52.95;99172.22;4494413;31;33092;-75
2023/07/13 02:41:22;;;;;;;;;;;;;;;26.25;53.45;99154.28;4494233;31;34179;-74
2023/07/13 02:43:51;;;;;;;;;;;;;;;26.14;53.68;99151.69;4493580;31;33967;-75
2023/07/13 02:46:25;;;;;;;;;;;;;;;26.08;53.48;99166.38;4497196;31;32884;-75
2023/07/13 02:48:56;;;;;;;;;;;;;;;26.10;52.51;99177.72;4499546;31;33613;-76
2023/07/13 02:51:33;;;;;;;;;;;;;;;26.00;53.30;99186.59;4494634;31;34994;-74
2023/07/13 02:54:08;;;;;;;;;;;;;;;26.02;53.55;99187.31;4494331;31;33653;-75
2023/07/13 02:56:39;;;;;;;;;;;;;;;26.00;53.35;99179.50;4498638;31;33119;-74
2023/07/13 02:59:15;;;;;;;;;;;;;;;26.06;52.60;99168.31;4480029;31;32461;-75
2023/07/13 03:01:45;;;;;;;;;;;;;;;26.04;52.17;99188.03;4498271;31;34783;-74
2023/07/13 03:04:19;;;;;;;;;;;;;;;26.00;51.87;99189.25;4488157;31;32414;-73
2023/07/13 03:06:48;;;;;;;;;;;;;;;25.98;52.73;99207.19;4503721;31;33165;-75
2023/07/13 03:09:18;;;;;;;;;;;;;;;25.79;53.13;99214.00;4498221;31;34109;-74
2023/07/13 03:11:56;;;;;;;;;;;;;;;25.61;53.94;99215.53;4497781;31;34283;-73
2023/07/13 03:14:26;;;;;;;;;;;;;;;25.39;55.19;99227.09;4497055;31;34287;-74
2023/07/13 03:16:55;;;;;;;;;;;;;;;24.92;57.62;99229.94;4494611;31;34235;-74
2023/07/13 03:19:24;;;;;;;;;;;;;;;24.98;58.29;99220.66;4495095;31;33551;-74
2023/07/13 03:21:53;;;;;;;;;;;;;;;24.95;58.73;99210.28;4494360;31;34357;-76
2023/07/13 03:24:25;;;;;;;;;;;;;;;24.96;59.07;99215.47;4497869;31;33861;-74
2023/07/13 03:26:57;;;;;;;;;;;;;;;24.83;59.56;99207.63;4496594;31;33694;-74
2023/07/13 03:29:26;;;;;;;;;;;;;;;24.85;59.82;99212.84;4499843;31;34964;-75
2023/07/13 03:31:59;;;;;;;;;;;;;;;24.95;59.44;99197.84;4494758;31;34014;-74
2023/07/13 03:34:28;;;;;;;;;;;;;;;24.93;59.79;99194.47;4503657;31;34036;-75
2023/07/13 03:36:58;;;;;;;;;;;;;;;25.03;59.34;99203.41;4505644;31;34245;-74
2023/07/13 03:39:27;;;;;;;;;;;;;;;25.22;58.81;99205.41;4499876;31;33717;-75
2023/07/13 03:42:02;;;;;;;;;;;;;;;25.41;57.22;99212.72;4458180;31;1185169;-74
2023/07/13 03:44:33;;;;;;;;;;;;;;;25.40;57.27;99221.66;4495806;31;34003;-74
2023/07/13 03:47:15;;;;;;;;;;;;;;;25.36;57.58;99228.19;4500716;31;32828;-74
2023/07/13 03:49:45;;;;;;;;;;;;;;;25.59;56.70;99218.34;4499580;31;34063;-74
2023/07/13 03:52:14;;;;;;;;;;;;;;;25.52;56.98;99225.13;4497463;31;33933;-74
2023/07/13 03:54:46;;;;;;;;;;;;;;;25.75;56.79;99224.03;4511698;31;33834;-75
2023/07/13 03:57:16;;;;;;;;;;;;;;;25.71;57.31;99224.44;4499267;31;33636;-75
2023/07/13 03:59:49;;;;;;;;;;;;;;;25.75;57.37;99215.22;4508658;31;34816;-74
2023/07/13 04:02:18;;;;;;;;;;;;;;;25.69;57.63;99223.72;4511406;31;34666;-74
2023/07/13 04:04:47;;;;;;;;;;;;;;;25.58;58.32;99242.34;4511577;31;34293;-75
2023/07/13 04:07:16;;;;;;;;;;;;;;;25.40;59.51;99250.03;4508827;31;33477;-74
2023/07/13 04:09:55;;;;;;;;;;;;;;;25.38;59.81;99268.75;4505425;31;34224;-75
2023/07/13 04:12:37;;;;;;;;;;;;;;;25.53;59.74;99283.41;4499659;31;34924;-75
2023/07/13 04:15:08;;;;;;;;;;;;;;;25.13;61.20;99293.75;4496703;31;34194;-75
2023/07/13 04:17:43;;;;;;;;;;;;;;;25.19;61.08;99295.09;4495252;31;33265;-74
2023/07/13 04:20:20;;;;;;;;;;;;;;;24.95;61.90;99281.94;4501778;31;34103;-75
2023/07/13 04:22:49;;;;;;;;;;;;;;;24.41;63.63;99289.59;4496566;31;33964;-76
2023/07/13 04:25:18;;;;;;;;;;;;;;;24.32;64.30;99300.06;4499824;31;34061;-75
2023/07/13 04:27:47;;;;;;;;;;;;;;;24.33;64.39;99307.03;4505925;31;33237;-73
2023/07/13 04:30:21;;;;;;;;;;;;;;;23.94;66.12;99315.22;4493794;31;33578;-76
2023/07/13 04:32:51;;;;;;;;;;;;;;;23.83;67.00;99321.34;4506776;31;33807;-75
2023/07/13 04:35:21;;;;;;;;;;;;;;;23.82;66.98;99324.97;4500574;31;34340;-76
2023/07/13 04:37:50;;;;;;;;;;;;;;;23.74;68.11;99327.31;4501312;31;33964;-77
2023/07/13 04:40:22;;;;;;;;;;;;;;;23.71;68.96;99327.50;4501712;31;34013;-76
2023/07/13 04:42:51;;;;;;;;;;;;;;;23.77;68.54;99347.44;4494366;31;34885;-77
2023/07/13 04:45:25;;;;;;;;;;;;;;;23.77;68.54;99350.06;4499475;31;34613;-76
2023/07/13 04:47:53;;;;;;;;;;;;;;;23.73;68.93;99353.91;4502423;31;33593;-75
2023/07/13 04:50:25;;;;;;;;;;;;;;;23.29;70.95;99353.47;4495434;31;34507;-76
2023/07/13 04:52:56;;;;;;;;;;;;;;;23.18;71.78;99370.13;4495203;31;35331;-73
2023/07/13 04:55:30;;;;;;;;;;;;;;;22.96;72.95;99380.50;4504906;31;34589;-74
2023/07/13 04:58:00;;;;;;;;;;;;;;;22.84;74.27;99403.34;4504461;31;33026;-76
2023/07/13 05:00:31;;;;;;;;;;;;;;;22.85;75.26;99428.81;4503258;31;35144;-73
2023/07/13 05:02:59;;;;;;;;;;;;;;;22.66;76.59;99455.66;4509604;31;34084;-75
2023/07/13 05:05:29;;;;;;;;;;;;;;;22.33;79.36;99485.19;4497143;31;34572;-73
2023/07/13 05:07:57;;;;;;;;;;;;;;;22.21;80.48;99518.53;4498851;31;34013;-75
2023/07/13 05:10:32;;;;;;;;;;;;;;;22.03;81.94;99549.56;4511162;31;33896;-77
2023/07/13 05:13:01;;;;;;;;;;;;;;;21.90;82.45;99553.94;4496976;31;34753;-75
2023/07/13 05:15:31;;;;;;;;;;;;;;;21.81;82.70;99555.34;4501591;31;34619;-76
2023/07/13 05:18:00;;;;;;;;;;;;;;;21.64;84.41;99561.66;4500538;31;34266;-75
2023/07/13 05:20:32;;;;;;;;;;;;;;;21.70;85.19;99558.66;4499257;31;34918;-76
2023/07/13 05:23:00;;;;;;;;;;;;;;;21.51;86.61;99566.00;4495729;31;33697;-77
2023/07/13 05:25:30;;;;;;;;;;;;;;;21.70;86.01;99555.19;4494935;31;34493;-73
2023/07/13 05:28:00;;;;;;;;;;;;;;;21.71;84.39;99563.00;4499434;31;32468;-73
2023/07/13 05:30:30;;;;;;;;;;;;;;;21.66;84.65;99567.69;4497970;31;33707;-75
2023/07/13 05:33:12;;;;;;;;;;;;;;;21.30;85.32;99560.19;4499200;31;34965;-74
2023/07/13 05:35:47;;;;;;;;;;;;;;;21.20;85.97;99551.97;4493661;31;34613;-73
2023/07/13 05:38:16;;;;;;;;;;;;;;;21.23;84.89;99545.66;4494518;31;33614;-75
2023/07/13 05:40:47;;;;;;;;;;;;;;;20.86;87.15;99524.09;4500806;31;33961;-74
2023/07/13 05:43:23;;;;;;;;;;;;;;;20.92;86.81;99520.25;4497958;31;34260;-75
2023/07/13 05:45:53;;;;;;;;;;;;;;;20.74;87.46;99507.19;4512732;31;34348;-75
2023/07/13 05:48:23;;;;;;;;;;;;;;;20.31;91.61;99506.13;4501400;31;32813;-75
2023/07/13 05:50:54;;;;;;;;;;;;;;;20.36;90.98;99502.28;4494410;31;35042;-75
2023/07/13 05:53:23;;;;;;;;;;;;;;;20.40;90.83;99480.13;4494719;31;34639;-76
2023/07/13 05:55:52;;;;;;;;;;;;;;;20.65;89.88;99476.09;4499257;31;33829;-76
2023/07/13 05:58:25;;;;;;;;;;;;;;;20.74;88.25;99474.72;4495077;31;33989;-76
2023/07/13 06:01:00;;;;;;;;;;;;;;;20.48;90.66;99474.41;4504391;31;33908;-75
2023/07/13 06:03:37;;;;;;;;;;;;;;;20.37;91.52;99468.88;4506067;31;33928;-77
2023/07/13 06:06:08;;;;;;;;;;;;;;;20.49;90.72;99422.53;4498428;31;33512;-76
2023/07/13 06:08:38;;;;;;;;;;;;;;;20.69;89.99;99345.81;4503708;31;33365;-75
2023/07/13 06:11:13;;;;;;;;;;;;;;;20.32;92.24;99212.78;4510331;31;33919;-75
2023/07/13 06:13:42;;;;;;;;;;;;;;;19.99;93.58;99124.37;4496243;31;34303;-76
2023/07/13 06:16:14;;;;;;;;;;;;;;;20.08;93.62;99108.00;4496927;31;33635;-76
2023/07/13 06:18:45;;;;;;;;;;;;;;;19.96;92.19;99125.41;4496179;31;32969;-75
2023/07/13 06:21:14;;;;;;;;;;;;;;;20.22;89.69;99158.03;4499603;31;34460;-75
2023/07/13 06:23:43;;;;;;;;;;;;;;;20.25;89.12;99143.84;4494663;31;33810;-77
2023/07/13 06:26:12;;;;;;;;;;;;;;;20.37;88.49;99102.69;4496252;31;35030;-78
2023/07/13 06:28:40;;;;;;;;;;;;;;;20.22;86.78;99096.59;4495387;31;33586;-77
2023/07/13 06:31:17;;;;;;;;;;;;;;;20.25;86.57;99057.75;4503435;31;33963;-76
2023/07/13 06:33:48;;;;;;;;;;;;;;;20.16;87.00;99068.03;4498740;31;34597;-78
2023/07/13 06:36:19;;;;;;;;;;;;;;;20.65;86.42;99075.47;4496983;31;33116;-75
2023/07/13 06:38:48;;;;;;;;;;;;;;;20.86;82.41;99058.25;4495215;31;33999;-78
2023/07/13 06:41:19;;;;;;;;;;;;;;;20.86;81.92;99087.25;4494836;31;34173;-76
2023/07/13 06:43:49;;;;;;;;;;;;;;;20.81;84.60;99070.91;4498124;31;33557;-76
2023/07/13 06:46:18;;;;;;;;;;;;;;;21.15;80.69;99062.56;4497696;31;33723;-78
2023/07/13 06:48:48;;;;;;;;;;;;;;;20.98;81.16;99077.69;4494755;31;33801;-77
2023/07/13 06:51:18;;;;;;;;;;;;;;;21.57;79.18;99087.00;4493915;31;33882;-78
2023/07/13 06:53:47;;;;;;;;;;;;;;;21.71;81.11;99098.31;4497980;31;34322;-80
2023/07/13 06:56:17;;;;;;;;;;;;;;;22.19;82.41;99097.66;4498459;31;33878;-80
2023/07/13 06:58:51;;;;;;;;;;;;;;;22.69;81.65;99105.56;4506006;31;32990;-80
2023/07/13 07:01:19;;;;;;;;;;;;;;;23.06;81.12;99111.69;4494004;31;33672;-77
2023/07/13 07:03:52;;;;;;;;;;;;;;;23.58;79.46;99146.66;4492913;31;34609;-78
2023/07/13 07:06:27;;;;;;;;;;;;;;;23.96;79.10;99167.59;4497463;31;34280;-77
2023/07/13 07:08:56;;;;;;;;;;;;;;;24.24;78.57;99154.87;4498789;31;32881;-76
2023/07/13 07:11:26;;;;;;;;;;;;;;;24.22;72.03;99294.63;4494446;31;34036;-77
2023/07/13 07:13:55;;;;;;;;;;;;;;;23.69;71.42;99302.09;4494573;31;33110;-77
2023/07/13 07:16:25;;;;;;;;;;;;;;;23.12;72.35;99327.38;4504747;31;34157;-78
2023/07/13 07:18:55;;;;;;;;;;;;;;;22.73;74.78;99326.53;4497838;31;35477;-78
2023/07/13 07:21:27;;;;;;;;;;;;;;;22.63;77.13;99357.22;4498617;31;33909;-77
2023/07/13 07:23:56;;;;;;;;;;;;;;;22.58;76.47;99341.66;4495919;31;34579;-78
2023/07/13 07:26:27;;;;;;;;;;;;;;;22.66;76.14;99343.78;4494366;31;33952;-76
2023/07/13 07:29:20;;;;;;;;;;;;;;;22.88;75.32;99354.56;4493654;31;32946;-77
2023/07/13 07:31:58;;;;;;;;;;;;;;;22.93;75.72;99367.47;4498348;31;33175;-77
2023/07/13 07:34:39;;;;;;;;;;;;;;;23.08;75.26;99370.88;4493542;31;33899;-77
2023/07/13 07:37:10;;;;;;;;;;;;;;;22.71;75.54;99365.44;4496830;31;33949;-79
2023/07/13 07:39:43;;;;;;;;;;;;;;;23.09;75.72;99368.13;4494137;31;33280;-81
2023/07/13 07:44:50;;;;;;;;;;;;;;;23.20;74.39;99373.50;4498537;31;34451;-78
2023/07/13 07:47:18;;;;;;;;;;;;;;;23.26;74.27;99379.31;4495635;31;33803;-77
2023/07/13 07:49:52;;;;;;;;;;;;;;;23.36;74.41;99377.72;4494889;31;33146;-78
2023/07/13 07:52:22;;;;;;;;;;;;;;;23.61;71.35;99384.75;4493163;31;34402;-78
2023/07/13 07:54:51;;;;;;;;;;;;;;;24.03;70.52;99395.84;4498257;31;35050;-80
2023/07/13 07:57:24;;;;;;;;;;;;;;;23.96;66.65;99384.84;4495356;31;33989;-79
2023/07/13 07:59:55;;;;;;;;;;;;;;;24.03;68.60;99401.16;4494824;31;33007;-80
2023/07/13 08:02:27;;;;;;;;;;;;;;;24.07;66.91;99399.97;4493589;31;33345;-80
2023/07/13 08:05:01;;;;;;;;;;;;;;;23.91;66.38;99394.09;4493082;31;34294;-77
2023/07/13 08:07:36;;;;;;;;;;;;;;;24.12;65.72;99389.88;4502159;31;33812;-78
2023/07/13 08:10:16;;;;;;;;;;;;;;;24.21;66.60;99389.19;4494807;31;33593;-78
2023/07/13 08:12:45;;;;;;;;;;;;;;;24.38;64.07;99397.66;4502079;31;33461;-80
2023/07/13 08:15:37;;;;;;;;;;;;;;;24.28;64.87;99387.78;4505126;31;34065;-78
2023/07/13 08:18:07;;;;;;;;;;;;;;;24.37;65.56;99396.84;4497136;31;33897;-77
2023/07/13 08:20:39;;;;;;;;;;;;;;;24.26;64.47;99405.59;4499815;31;34724;-76
2023/07/13 08:23:10;;;;;;;;;;;;;;;24.36;65.74;99392.50;4499123;31;36020;-80
2023/07/13 08:25:51;;;;;;;;;;;;;;;24.34;65.03;99390.94;4496991;31;34921;-77
2023/07/13 08:28:20;;;;;;;;;;;;;;;24.59;65.46;99392.59;4495527;31;34109;-78
2023/07/13 08:30:49;;;;;;;;;;;;;;;24.52;63.95;99399.31;4496154;31;33379;-76
2023/07/13 08:33:18;;;;;;;;;;;;;;;24.52;63.06;99392.22;4502750;31;34103;-79
2023/07/13 08:35:53;;;;;;;;;;;;;;;24.59;63.84;99392.59;4497266;31;34327;-78
2023/07/13 08:38:25;;;;;;;;;;;;;;;24.75;63.74;99390.47;4503205;31;33869;-79
2023/07/13 08:40:54;;;;;;;;;;;;;;;24.80;63.35;99382.16;4495117;31;33111;-78
2023/07/13 08:43:27;;;;;;;;;;;;;;;25.09;63.42;99390.50;4495534;31;34288;-76
2023/07/13 08:45:58;;;;;;;;;;;;;;;25.13;64.29;99387.50;4503524;31;34050;-79
2023/07/13 08:48:32;;;;;;;;;;;;;;;25.54;60.72;99388.72;4498425;31;34045;-80
2023/07/13 08:51:07;;;;;;;;;;;;;;;25.44;60.48;99393.06;4497549;31;32452;-77
2023/07/13 08:53:38;;;;;;;;;;;;;;;25.54;61.50;99383.37;4496175;31;34187;-78
2023/07/13 08:56:10;;;;;;;;;;;;;;;25.38;60.94;99387.41;4498052;31;34197;-77
2023/07/13 08:58:39;;;;;;;;;;;;;;;25.65;61.06;99392.31;4503588;31;34771;-78
2023/07/13 09:01:12;;;;;;;;;;;;;;;25.75;60.62;99393.25;4496743;31;33478;-78
2023/07/13 09:03:43;;;;;;;;;;;;;;;25.81;60.84;99387.44;4494797;31;34527;-77
2023/07/13 09:06:14;;;;;;;;;;;;;;;26.25;59.06;99385.63;4497007;31;34329;-76
2023/07/13 09:08:47;;;;;;;;;;;;;;;26.09;58.97;99385.19;4508902;31;35711;-78
2023/07/13 09:11:24;;;;;;;;;;;;;;;25.87;59.29;99392.28;4495646;31;34596;-76
2023/07/13 09:14:04;;;;;;;;;;;;;;;25.78;59.55;99385.00;4493136;31;33665;-76
2023/07/13 09:16:33;;;;;;;;;;;;;;;26.18;58.86;99382.63;4497124;31;33738;-76
2023/07/13 09:19:06;;;;;;;;;;;;;;;26.24;59.90;99378.63;4498338;31;34163;-78
2023/07/13 09:21:40;;;;;;;;;;;;;;;26.65;58.34;99374.31;4501957;31;33853;-76
2023/07/13 09:24:31;;;;;;;;;;;;;;;26.46;57.09;99384.78;4498723;31;33754;-79
2023/07/13 09:27:06;;;;;;;;;;;;;;;26.57;56.61;99382.09;4498213;31;33913;-76
2023/07/13 09:29:38;;;;;;;;;;;;;;;26.41;56.56;99385.19;4499032;31;33714;-76
2023/07/13 09:32:15;;;;;;;;;;;;;;;26.20;56.69;99386.97;4483742;31;32102;-77
2023/07/13 09:34:44;;;;;;;;;;;;;;;26.31;56.80;99389.56;4494991;31;34061;-78
2023/07/13 09:37:15;;;;;;;;;;;;;;;26.43;56.68;99398.34;4501701;31;33910;-78
2023/07/13 09:39:51;;;;;;;;;;;;;;;26.47;56.60;99399.78;4498517;31;33969;-77
2023/07/13 09:42:21;;;;;;;;;;;;;;;26.63;56.48;99397.56;4496014;31;33574;-76
2023/07/13 09:44:53;;;;;;;;;;;;;;;26.73;56.42;99397.63;4509735;31;34224;-77
2023/07/13 09:47:25;;;;;;;;;;;;;;;26.70;55.99;99398.72;4499927;31;34835;-77
2023/07/13 09:49:55;;;;;;;;;;;;;;;26.73;55.03;99402.94;4502570;31;34395;-76
2023/07/13 09:52:34;;;;;;;;;;;;;;;26.81;55.92;99403.12;4511061;31;32844;-75
2023/07/13 09:55:05;;;;;;;;;;;;;;;27.23;54.95;99403.94;4501617;31;34583;-75
2023/07/13 09:57:37;;;;;;;;;;;;;;;27.19;54.89;99401.69;4494688;31;34659;-77
2023/07/13 10:00:24;;;;;;;;;;;;;;;27.13;54.18;99404.81;4499713;31;34401;-76
2023/07/13 10:03:03;;;;;;;;;;;;;;;27.11;53.91;99410.31;4501560;31;33163;-77
2023/07/13 10:05:38;;;;;;;;;;;;;;;27.33;53.65;99408.44;4494493;31;34646;-77
2023/07/13 10:08:23;;;;;;;;;;;;;;;27.75;53.28;99418.97;4502872;31;33708;-76
2023/07/13 10:10:55;;;;;;;;;;;;;;;27.43;53.04;99414.66;4495360;31;34277;-78
2023/07/13 10:13:26;;;;;;;;;;;;;;;27.52;52.77;99413.00;4499629;31;33354;-77
2023/07/13 10:15:55;;;;;;;;;;;;;;;27.67;52.45;99412.50;4506179;31;33490;-77
2023/07/13 10:18:26;;;;;;;;;;;;;;;27.65;51.91;99409.13;4501222;31;35472;-76
2023/07/13 10:20:55;;;;;;;;;;;;;;;27.73;52.23;99407.59;4499783;31;33351;-76
2023/07/13 10:23:53;;;;;;;;;;;;;;;28.01;50.86;99409.50;4499770;31;32982;-78
2023/07/13 10:26:24;;;;;;;;;;;;;;;27.86;51.46;99421.56;4500429;31;33740;-76
2023/07/13 10:28:55;;;;;;;;;;;;;;;27.81;50.50;99416.59;4508959;31;33772;-78
2023/07/13 10:31:24;;;;;;;;;;;;;;;27.97;50.03;99413.41;4500229;31;34087;-76
2023/07/13 10:33:57;;;;;;;;;;;;;;;27.92;50.06;99409.50;4495317;31;33422;-77
2023/07/13 10:36:29;;;;;;;;;;;;;;;27.70;49.65;99415.88;4503014;31;34140;-76
2023/07/13 10:39:11;;;;;;;;;;;;;;;27.96;48.62;99413.56;4502733;31;34538;-77
2023/07/13 10:41:43;;;;;;;;;;;;;;;28.16;49.11;99407.25;4503002;31;34930;-76
2023/07/13 10:44:26;;;;;;;;;;;;;;;28.14;49.59;99406.56;4498762;31;33196;-75
2023/07/13 10:46:55;;;;;;;;;;;;;;;28.20;49.09;99402.50;4505046;31;33204;-76
2023/07/13 10:49:29;;;;;;;;;;;;;;;28.44;49.38;99407.37;4499313;31;34400;-76
2023/07/13 10:51:58;;;;;;;;;;;;;;;28.44;48.17;99416.25;4497940;31;33921;-78
2023/07/13 10:54:28;;;;;;;;;;;;;;;28.64;49.88;99419.78;4502649;31;33576;-76
2023/07/13 10:57:18;;;;;;;;;;;;;;;28.86;49.03;99413.25;4496411;31;35221;-78
2023/07/13 10:59:48;;;;;;;;;;;;;;;29.07;47.23;99413.09;4493963;31;34555;-75
2023/07/13 11:02:33;;;;;;;;;;;;;;;28.94;47.26;99410.72;4499698;31;34146;-76
2023/07/13 11:05:02;;;;;;;;;;;;;;;28.91;47.13;99405.66;4492726;31;33606;-78
2023/07/13 11:07:52;;;;;;;;;;;;;;;28.74;47.75;99414.41;4502432;31;33630;-75
2023/07/13 11:10:38;;;;;;;;;;;;;;;29.26;47.72;99409.53;4505699;31;33566;-78
2023/07/13 11:13:29;;;;;;;;;;;;;;;29.32;45.60;99405.41;4499052;31;33921;-76
2023/07/13 11:15:58;;;;;;;;;;;;;;;29.12;47.64;99405.50;4497779;31;33707;-76
2023/07/13 11:18:31;;;;;;;;;;;;;;;29.49;45.68;99418.00;4498280;31;34254;-77
2023/07/13 11:21:13;;;;;;;;;;;;;;;29.52;47.52;99416.84;4497610;31;34790;-76
2023/07/13 11:24:05;;;;;;;;;;;;;;;29.56;45.69;99413.72;4501361;31;34134;-78
2023/07/13 11:26:40;;;;;;;;;;;;;;;29.26;45.79;99406.84;4499265;31;33274;-76
2023/07/13 11:29:14;;;;;;;;;;;;;;;29.38;46.18;99388.78;4499483;31;33897;-77
2023/07/13 11:31:43;;;;;;;;;;;;;;;29.57;47.01;99393.19;4493210;31;36862;-76
2023/07/13 11:34:14;;;;;;;;;;;;;;;29.80;46.53;99401.69;4503186;31;34789;-77
2023/07/13 11:36:43;;;;;;;;;;;;;;;29.49;46.29;99399.28;4498791;31;33793;-78
2023/07/13 11:39:14;;;;;;;;;;;;;;;30.05;45.40;99400.06;4493209;31;33295;-77
2023/07/13 11:41:44;;;;;;;;;;;;;;;30.38;43.72;99392.38;4494688;31;34016;-78
2023/07/13 11:44:16;;;;;;;;;;;;;;;30.30;44.63;99395.84;4496755;31;33948;-79
2023/07/13 11:46:54;;;;;;;;;;;;;;;30.01;43.73;99393.38;4494240;31;33913;-79
2023/07/13 11:49:24;;;;;;;;;;;;;;;30.10;45.37;99399.63;4498478;31;34479;-76
2023/07/13 11:51:56;;;;;;;;;;;;;;;30.53;44.48;99400.69;4496120;31;33947;-78
2023/07/13 11:54:27;;;;;;;;;;;;;;;30.93;44.30;99408.22;4494801;31;34579;-76
2023/07/13 11:57:02;;;;;;;;;;;;;;;30.95;42.82;99400.88;4498033;31;33349;-78
2023/07/13 11:59:34;;;;;;;;;;;;;;;30.53;44.14;99396.19;4498822;31;34680;-79
2023/07/13 12:02:04;;;;;;;;;;;;;;;30.73;43.86;99401.34;4501862;31;33997;-77
2023/07/13 12:04:33;;;;;;;;;;;;;;;31.20;42.61;99390.28;4502414;31;34767;-77
2023/07/13 12:07:08;;;;;;;;;;;;;;;31.41;40.11;99380.03;4498501;31;32803;-77
2023/07/13 12:09:37;;;;;;;;;;;;;;;31.11;40.91;99389.38;4501665;31;33614;-75
2023/07/13 12:12:16;;;;;;;;;;;;;;;30.24;42.04;99382.19;4499481;31;35045;-80
2023/07/13 12:14:46;;;;;;;;;;;;;;;30.47;41.62;99382.56;4499362;31;34802;-78
2023/07/13 12:17:16;;;;;;;;;;;;;;;30.62;42.73;99389.06;4494867;31;32336;-77
2023/07/13 12:19:48;;;;;;;;;;;;;;;30.99;42.11;99396.84;4495971;31;33536;-79
2023/07/13 12:22:18;;;;;;;;;;;;;;;30.58;40.50;99398.41;4495714;31;34613;-75
2023/07/13 12:24:51;;;;;;;;;;;;;;;30.61;41.72;99388.22;4499767;31;34091;-79
2023/07/13 12:27:20;;;;;;;;;;;;;;;30.67;42.30;99388.59;4495288;31;33429;-78
2023/07/13 12:29:53;;;;;;;;;;;;;;;30.74;41.84;99379.78;4495346;31;33981;-75
2023/07/13 12:32:22;;;;;;;;;;;;;;;30.51;42.00;99378.59;4494409;31;34970;-76
2023/07/13 12:34:52;;;;;;;;;;;;;;;30.73;42.59;99363.84;4494741;31;33927;-75
2023/07/13 12:37:21;;;;;;;;;;;;;;;30.93;40.32;99372.53;4499800;31;33740;-79
2023/07/13 12:39:49;;;;;;;;;;;;;;;30.75;41.01;99381.44;4496558;31;33736;-79
2023/07/13 12:42:24;;;;;;;;;;;;;;;30.96;40.37;99370.38;4494587;31;34614;-77
2023/07/13 12:44:58;;;;;;;;;;;;;;;30.72;40.73;99373.72;4495270;31;33795;-78
2023/07/13 12:47:27;;;;;;;;;;;;;;;30.79;41.15;99387.34;4500300;31;33060;-76
2023/07/13 12:50:06;;;;;;;;;;;;;;;30.85;40.82;99383.22;4509266;31;34714;-76
2023/07/13 12:52:37;;;;;;;;;;;;;;;30.86;40.15;99385.75;4495322;31;33933;-77
2023/07/13 12:55:09;;;;;;;;;;;;;;;30.86;39.89;99379.53;4494910;31;33955;-77
2023/07/13 12:57:43;;;;;;;;;;;;;;;31.09;40.02;99383.34;4497155;31;33747;-77
2023/07/13 13:00:32;;;;;;;;;;;;;;;31.01;41.12;99380.62;4499822;31;35055;-76
2023/07/13 13:03:07;;;;;;;;;;;;;;;31.39;39.59;99376.66;4509043;31;34761;-78
2023/07/13 13:05:58;;;;;;;;;;;;;;;31.71;39.63;99382.28;4510972;31;33794;-78
2023/07/13 13:08:29;;;;;;;;;;;;;;;32.07;37.94;99377.53;4501373;31;32347;-77
2023/07/13 13:10:57;;;;;;;;;;;;;;;31.89;37.29;99374.94;4495227;31;35507;-76
2023/07/13 13:13:26;;;;;;;;;;;;;;;31.63;37.74;99364.31;4494330;31;34054;-75
2023/07/13 13:16:05;;;;;;;;;;;;;;;31.46;38.37;99368.81;4499742;31;34153;-77
2023/07/13 13:18:36;;;;;;;;;;;;;;;31.60;39.67;99356.59;4496774;31;33548;-76